createdAt,value
2022-11-03T00:03:17.257Z,100.00
2022-11-03T00:13:19.468Z,100.00
2022-11-03T00:23:21.568Z,100.00
2022-11-03T00:33:27.013Z,100.00
2022-11-03T00:43:35.045Z,100.00
2022-11-03T00:53:43.656Z,100.00
2022-11-03T01:04:09.479Z,100.00
2022-11-03T01:14:19.128Z,100.00
2022-11-03T01:24:26.052Z,100.00
2022-11-03T01:34:31.904Z,100.00
2022-11-03T01:44:36.213Z,100.00
2022-11-03T01:54:43.962Z,100.00
2022-11-03T02:04:46.142Z,100.00
2022-11-03T02:14:59.309Z,100.00
2022-11-03T02:25:23.294Z,100.00
2022-11-03T02:35:33.715Z,100.00
2022-11-03T02:45:37.935Z,100.00
2022-11-03T02:55:41.695Z,100.00
2022-11-03T03:05:45.698Z,100.00
2022-11-03T03:15:53.869Z,100.00
2022-11-03T03:26:05.928Z,100.00
2022-11-03T03:36:12.399Z,100.00
2022-11-03T03:46:17.570Z,100.00
2022-11-03T03:56:23.681Z,100.00
2022-11-03T04:06:29.016Z,100.00
2022-11-03T04:16:54.819Z,100.00
2022-11-03T04:27:12.743Z,100.00
2022-11-03T04:37:19.141Z,100.00
2022-11-03T04:47:21.350Z,100.00
2022-11-03T04:57:23.630Z,100.00
2022-11-03T05:07:34.890Z,100.00
2022-11-03T05:17:37.721Z,100.00
2022-11-03T05:27:45.205Z,100.00
2022-11-03T05:37:49.447Z,100.00
2022-11-03T05:47:55.115Z,100.00
2022-11-03T05:58:00.466Z,100.00
2022-11-03T06:08:18.637Z,100.00
2022-11-03T06:18:25.029Z,100.00
2022-11-03T06:28:32.663Z,100.00
2022-11-03T06:38:35.965Z,100.00
2022-11-03T06:48:39.358Z,100.00
2022-11-03T06:58:42.855Z,100.00
2022-11-03T07:08:54.852Z,97.83
2022-11-03T07:19:11.720Z,94.27
2022-11-03T07:29:23.669Z,91.93
2022-11-03T07:39:35.573Z,90.17
2022-11-03T07:49:40.494Z,86.17
2022-11-03T07:59:44.820Z,84.57
2022-11-03T08:09:46.851Z,82.90
2022-11-03T08:19:51.199Z,81.48
2022-11-03T08:29:56.980Z,78.92
2022-11-03T08:40:01.282Z,79.27
2022-11-03T08:50:13.923Z,78.70
2022-11-03T09:00:23.163Z,79.16
2022-11-03T09:10:29.986Z,81.57
2022-11-03T09:20:39.001Z,81.81
2022-11-03T09:30:44.958Z,83.12
2022-11-03T09:40:51.792Z,84.19
2022-11-03T09:50:58.112Z,85.36
2022-11-03T10:01:04.001Z,83.77
2022-11-03T10:11:09.879Z,83.11
2022-11-03T10:21:38.190Z,81.71
2022-11-03T10:31:42.107Z,81.00
2022-11-03T10:41:58.664Z,84.21
2022-11-03T10:52:19.715Z,79.41
2022-11-03T11:02:25.326Z,77.56
2022-11-03T11:12:31.822Z,75.40
2022-11-03T11:22:34.106Z,75.24
2022-11-03T11:32:44.831Z,73.67
2022-11-03T11:43:05.866Z,71.35
2022-11-03T11:53:11.534Z,69.08
2022-11-03T12:03:17.932Z,66.01
2022-11-03T12:13:53.978Z,65.00
2022-11-03T12:23:55.996Z,64.09
2022-11-03T12:34:01.159Z,64.77
2022-11-03T12:44:05.975Z,64.08
2022-11-03T12:54:08.483Z,64.14
2022-11-03T13:04:10.779Z,65.00
2022-11-03T13:14:15.109Z,61.30
2022-11-03T13:24:19.455Z,61.75
2022-11-03T13:34:24.205Z,61.74
2022-11-03T13:44:27.342Z,60.52
2022-11-03T14:04:52.059Z,60.59
2022-11-03T14:14:56.194Z,60.93
2022-11-03T14:25:02.205Z,61.27
2022-11-03T14:35:08.260Z,62.27
2022-11-03T14:45:17.706Z,61.43
2022-11-03T14:55:24.644Z,61.99
2022-11-03T15:05:48.494Z,63.73
2022-11-03T15:15:53.240Z,65.95
2022-11-03T15:25:57.808Z,64.89
2022-11-03T15:36:04.641Z,65.58
2022-11-03T15:46:10.398Z,65.62
2022-11-03T15:56:14.707Z,65.61
2022-11-03T16:06:19.039Z,66.24
2022-11-03T16:16:21.057Z,66.76
2022-11-03T16:26:24.418Z,67.66
2022-11-03T16:36:26.479Z,68.44
2022-11-03T16:46:30.014Z,69.23
2022-11-03T16:56:39.983Z,70.24
2022-11-03T17:06:42.025Z,72.12
2022-11-03T17:16:46.866Z,74.04
2022-11-03T17:26:58.194Z,76.80
2022-11-03T17:37:00.682Z,80.15
2022-11-03T17:47:02.646Z,80.98
2022-11-03T17:57:07.393Z,83.38
2022-11-03T18:07:30.269Z,85.26
2022-11-03T18:17:37.368Z,86.64
2022-11-03T18:27:39.725Z,87.23
2022-11-03T18:37:44.354Z,90.17
2022-11-03T18:47:52.231Z,93.29
2022-11-03T18:57:56.749Z,98.27
2022-11-03T19:08:02.773Z,100.00
2022-11-03T19:18:08.720Z,100.00
2022-11-03T19:28:18.751Z,100.00
2022-11-03T19:38:26.970Z,100.00
2022-11-03T19:48:35.768Z,100.00
2022-11-03T19:58:37.759Z,100.00
2022-11-03T20:08:47.649Z,100.00
2022-11-03T20:18:57.559Z,100.00
2022-11-03T20:29:11.834Z,100.00
2022-11-03T20:39:14.725Z,100.00
2022-11-03T20:49:18.997Z,100.00
2022-11-03T20:59:24.917Z,100.00
2022-11-03T21:09:33.783Z,100.00
2022-11-03T21:19:57.821Z,100.00
2022-11-03T21:30:00.365Z,100.00
2022-11-03T21:40:05.106Z,100.00
2022-11-03T21:50:09.873Z,100.00
2022-11-03T22:00:14.689Z,100.00
2022-11-03T22:10:16.744Z,100.00
2022-11-03T22:20:39.861Z,100.00
2022-11-03T22:31:05.726Z,100.00
2022-11-03T22:41:28.905Z,100.00
2022-11-03T22:51:31.048Z,100.00
2022-11-03T23:01:37.525Z,100.00
2022-11-03T23:11:43.693Z,100.00
2022-11-03T23:21:49.567Z,100.00
2022-11-03T23:31:53.960Z,100.00
2022-11-03T23:41:55.994Z,100.00
2022-11-03T23:51:58.806Z,100.00
